sensor_id;sensor_type;location;lat;lon;timestamp;temperature;humidity
20985;DHT22;10651;47.552;7.606;2023-07-31T06:14:42;17.90;99.90
20985;DHT22;10651;47.552;7.606;2023-07-31T06:17:08;18.10;99.90
20985;DHT22;10651;47.552;7.606;2023-07-31T06:19:34;18.20;99.90
20985;DHT22;10651;47.552;7.606;2023-07-31T06:21:59;18.20;99.90
20985;DHT22;10651;47.552;7.606;2023-07-31T06:24:25;18.20;99.90
20985;DHT22;10651;47.552;7.606;2023-07-31T06:26:51;18.30;99.90
20985;DHT22;10651;47.552;7.606;2023-07-31T06:29:17;18.40;99.90
20985;DHT22;10651;47.552;7.606;2023-07-31T06:31:43;18.40;99.90
20985;DHT22;10651;47.552;7.606;2023-07-31T06:34:08;18.40;99.90
20985;DHT22;10651;47.552;7.606;2023-07-31T06:36:34;18.50;99.90
20985;DHT22;10651;47.552;7.606;2023-07-31T06:39:00;18.50;99.90
20985;DHT22;10651;47.552;7.606;2023-07-31T06:41:26;18.50;99.90
20985;DHT22;10651;47.552;7.606;2023-07-31T06:43:55;18.50;99.90
20985;DHT22;10651;47.552;7.606;2023-07-31T06:46:20;18.50;99.90
20985;DHT22;10651;47.552;7.606;2023-07-31T06:48:48;18.60;99.90
20985;DHT22;10651;47.552;7.606;2023-07-31T06:51:14;18.60;99.90
20985;DHT22;10651;47.552;7.606;2023-07-31T06:53:40;18.50;99.90
20985;DHT22;10651;47.552;7.606;2023-07-31T06:56:07;18.60;99.90
20985;DHT22;10651;47.552;7.606;2023-07-31T06:58:32;18.60;99.90
20985;DHT22;10651;47.552;7.606;2023-07-31T07:00:58;18.60;99.90
20985;DHT22;10651;47.552;7.606;2023-07-31T07:03:24;18.70;99.90
20985;DHT22;10651;47.552;7.606;2023-07-31T07:05:50;18.80;99.90
20985;DHT22;10651;47.552;7.606;2023-07-31T07:08:18;18.80;99.90
20985;DHT22;10651;47.552;7.606;2023-07-31T07:10:44;19.00;99.90
20985;DHT22;10651;47.552;7.606;2023-07-31T07:13:10;19.00;99.90
20985;DHT22;10651;47.552;7.606;2023-07-31T07:15:40;19.00;99.90
20985;DHT22;10651;47.552;7.606;2023-07-31T07:18:09;19.10;99.90
20985;DHT22;10651;47.552;7.606;2023-07-31T07:20:36;19.30;99.90
20985;DHT22;10651;47.552;7.606;2023-07-31T07:23:02;19.50;99.90
20985;DHT22;10651;47.552;7.606;2023-07-31T07:25:27;19.70;99.90
20985;DHT22;10651;47.552;7.606;2023-07-31T07:27:53;19.70;99.90
20985;DHT22;10651;47.552;7.606;2023-07-31T07:30:19;19.90;99.90
20985;DHT22;10651;47.552;7.606;2023-07-31T07:32:50;20.00;99.90
20985;DHT22;10651;47.552;7.606;2023-07-31T07:35:22;20.10;99.90
20985;DHT22;10651;47.552;7.606;2023-07-31T07:37:51;20.10;99.90
20985;DHT22;10651;47.552;7.606;2023-07-31T07:40:17;20.20;99.90
20985;DHT22;10651;47.552;7.606;2023-07-31T07:42:43;20.10;99.90
20985;DHT22;10651;47.552;7.606;2023-07-31T07:45:09;20.00;99.90
20985;DHT22;10651;47.552;7.606;2023-07-31T07:47:35;20.20;99.90
20985;DHT22;10651;47.552;7.606;2023-07-31T07:50:01;20.30;99.90
20985;DHT22;10651;47.552;7.606;2023-07-31T07:52:27;20.30;99.90
20985;DHT22;10651;47.552;7.606;2023-07-31T07:54:53;20.30;99.90
20985;DHT22;10651;47.552;7.606;2023-07-31T07:57:19;20.30;99.90
20985;DHT22;10651;47.552;7.606;2023-07-31T07:59:45;20.40;99.90
20985;DHT22;10651;47.552;7.606;2023-07-31T08:02:10;20.40;99.90
20985;DHT22;10651;47.552;7.606;2023-07-31T08:04:36;20.50;99.90
20985;DHT22;10651;47.552;7.606;2023-07-31T08:07:02;20.80;99.90
20985;DHT22;10651;47.552;7.606;2023-07-31T08:09:28;21.00;99.90
20985;DHT22;10651;47.552;7.606;2023-07-31T08:11:53;21.40;99.90
20985;DHT22;10651;47.552;7.606;2023-07-31T08:14:20;21.60;99.90
20985;DHT22;10651;47.552;7.606;2023-07-31T08:16:45;21.70;99.90
20985;DHT22;10651;47.552;7.606;2023-07-31T08:19:11;21.70;99.90
20985;DHT22;10651;47.552;7.606;2023-07-31T08:21:37;21.70;99.90
20985;DHT22;10651;47.552;7.606;2023-07-31T08:24:02;21.50;99.90
20985;DHT22;10651;47.552;7.606;2023-07-31T08:26:28;21.70;99.90
20985;DHT22;10651;47.552;7.606;2023-07-31T08:28:54;21.80;99.90
20985;DHT22;10651;47.552;7.606;2023-07-31T08:31:20;21.90;99.90
20985;DHT22;10651;47.552;7.606;2023-07-31T08:33:45;22.10;99.90
20985;DHT22;10651;47.552;7.606;2023-07-31T08:36:11;22.20;99.90
20985;DHT22;10651;47.552;7.606;2023-07-31T08:38:37;22.10;99.90
20985;DHT22;10651;47.552;7.606;2023-07-31T08:41:03;22.20;99.90
20985;DHT22;10651;47.552;7.606;2023-07-31T08:43:30;22.10;99.90
20985;DHT22;10651;47.552;7.606;2023-07-31T08:45:56;22.10;99.90
20985;DHT22;10651;47.552;7.606;2023-07-31T08:48:23;22.20;99.90
20985;DHT22;10651;47.552;7.606;2023-07-31T08:50:50;22.10;99.90
20985;DHT22;10651;47.552;7.606;2023-07-31T08:53:15;22.10;99.90
20985;DHT22;10651;47.552;7.606;2023-07-31T08:55:43;22.10;99.90
20985;DHT22;10651;47.552;7.606;2023-07-31T08:58:10;22.10;99.90
20985;DHT22;10651;47.552;7.606;2023-07-31T09:00:38;22.20;99.90
20985;DHT22;10651;47.552;7.606;2023-07-31T09:03:10;22.40;99.90
20985;DHT22;10651;47.552;7.606;2023-07-31T09:05:39;22.60;99.90
20985;DHT22;10651;47.552;7.606;2023-07-31T09:08:08;22.60;99.90
20985;DHT22;10651;47.552;7.606;2023-07-31T09:10:35;22.50;99.90
20985;DHT22;10651;47.552;7.606;2023-07-31T09:13:01;22.70;99.90
20985;DHT22;10651;47.552;7.606;2023-07-31T09:15:28;22.40;99.90
20985;DHT22;10651;47.552;7.606;2023-07-31T09:18:01;22.50;99.90
20985;DHT22;10651;47.552;7.606;2023-07-31T09:20:27;22.60;99.90
20985;DHT22;10651;47.552;7.606;2023-07-31T09:22:53;22.80;99.90
20985;DHT22;10651;47.552;7.606;2023-07-31T09:25:22;23.00;99.90
20985;DHT22;10651;47.552;7.606;2023-07-31T09:30:20;23.10;99.90
20985;DHT22;10651;47.552;7.606;2023-07-31T09:32:46;23.10;99.90
20985;DHT22;10651;47.552;7.606;2023-07-31T09:35:29;23.10;99.90
20985;DHT22;10651;47.552;7.606;2023-07-31T09:38:05;23.10;99.90
20985;DHT22;10651;47.552;7.606;2023-07-31T09:40:36;23.40;99.90
20985;DHT22;10651;47.552;7.606;2023-07-31T09:43:04;23.80;99.90
20985;DHT22;10651;47.552;7.606;2023-07-31T09:45:33;23.80;99.90
20985;DHT22;10651;47.552;7.606;2023-07-31T09:47:58;23.70;99.90
20985;DHT22;10651;47.552;7.606;2023-07-31T09:50:24;23.70;99.90
20985;DHT22;10651;47.552;7.606;2023-07-31T09:52:51;23.80;99.90
20985;DHT22;10651;47.552;7.606;2023-07-31T09:55:18;23.80;99.90
20985;DHT22;10651;47.552;7.606;2023-07-31T09:57:48;23.90;99.90
20985;DHT22;10651;47.552;7.606;2023-07-31T10:00:17;24.00;99.90
20985;DHT22;10651;47.552;7.606;2023-07-31T10:02:46;24.10;99.90
20985;DHT22;10651;47.552;7.606;2023-07-31T10:05:16;24.30;99.90
20985;DHT22;10651;47.552;7.606;2023-07-31T10:07:49;24.30;99.90
20985;DHT22;10651;47.552;7.606;2023-07-31T10:10:16;24.30;99.90
20985;DHT22;10651;47.552;7.606;2023-07-31T10:12:44;24.40;99.90
20985;DHT22;10651;47.552;7.606;2023-07-31T10:15:11;24.40;99.90
20985;DHT22;10651;47.552;7.606;2023-07-31T10:17:38;24.40;99.90
20985;DHT22;10651;47.552;7.606;2023-07-31T10:20:04;24.60;99.90
20985;DHT22;10651;47.552;7.606;2023-07-31T10:22:31;24.80;99.90
20985;DHT22;10651;47.552;7.606;2023-07-31T10:24:59;25.10;99.90
20985;DHT22;10651;47.552;7.606;2023-07-31T10:27:25;25.10;99.90
20985;DHT22;10651;47.552;7.606;2023-07-31T10:29:56;25.10;99.90
20985;DHT22;10651;47.552;7.606;2023-07-31T10:32:24;25.20;99.90
20985;DHT22;10651;47.552;7.606;2023-07-31T10:34:51;25.50;99.90
20985;DHT22;10651;47.552;7.606;2023-07-31T10:42:34;25.60;99.90
20985;DHT22;10651;47.552;7.606;2023-07-31T10:45:05;25.30;99.90
20985;DHT22;10651;47.552;7.606;2023-07-31T10:47:58;25.00;99.90
20985;DHT22;10651;47.552;7.606;2023-07-31T10:50:22;25.10;99.90
20985;DHT22;10651;47.552;7.606;2023-07-31T10:52:56;25.10;99.90
20985;DHT22;10651;47.552;7.606;2023-07-31T10:55:31;25.20;99.90
20985;DHT22;10651;47.552;7.606;2023-07-31T10:58:05;25.20;99.90
20985;DHT22;10651;47.552;7.606;2023-07-31T11:00:31;25.20;99.90
20985;DHT22;10651;47.552;7.606;2023-07-31T11:03:06;25.30;99.90
20985;DHT22;10651;47.552;7.606;2023-07-31T11:08:28;25.60;99.90
20985;DHT22;10651;47.552;7.606;2023-07-31T11:13:30;25.90;99.90
20985;DHT22;10651;47.552;7.606;2023-07-31T11:15:55;25.80;99.90
20985;DHT22;10651;47.552;7.606;2023-07-31T11:18:21;25.70;99.90
20985;DHT22;10651;47.552;7.606;2023-07-31T11:20:47;25.70;99.90
20985;DHT22;10651;47.552;7.606;2023-07-31T11:23:17;25.70;99.90
20985;DHT22;10651;47.552;7.606;2023-07-31T11:25:43;25.60;99.90
20985;DHT22;10651;47.552;7.606;2023-07-31T11:28:14;25.60;99.90
20985;DHT22;10651;47.552;7.606;2023-07-31T11:30:41;25.80;99.90
20985;DHT22;10651;47.552;7.606;2023-07-31T11:33:09;25.70;99.90
20985;DHT22;10651;47.552;7.606;2023-07-31T11:35:40;25.70;99.90
20985;DHT22;10651;47.552;7.606;2023-07-31T11:38:07;25.80;99.90
20985;DHT22;10651;47.552;7.606;2023-07-31T11:40:42;25.90;99.90
20985;DHT22;10651;47.552;7.606;2023-07-31T11:43:07;26.00;99.90
20985;DHT22;10651;47.552;7.606;2023-07-31T11:45:33;26.10;99.90
20985;DHT22;10651;47.552;7.606;2023-07-31T11:48:01;26.10;99.90
20985;DHT22;10651;47.552;7.606;2023-07-31T11:50:27;25.90;99.90
20985;DHT22;10651;47.552;7.606;2023-07-31T11:52:59;26.00;99.90
20985;DHT22;10651;47.552;7.606;2023-07-31T11:55:26;26.20;99.90
20985;DHT22;10651;47.552;7.606;2023-07-31T11:57:54;26.40;99.90
20985;DHT22;10651;47.552;7.606;2023-07-31T12:00:21;26.40;99.90
20985;DHT22;10651;47.552;7.606;2023-07-31T12:02:47;26.30;99.90
20985;DHT22;10651;47.552;7.606;2023-07-31T12:05:13;26.20;99.90
20985;DHT22;10651;47.552;7.606;2023-07-31T12:07:52;26.30;99.90
20985;DHT22;10651;47.552;7.606;2023-07-31T12:10:30;26.30;99.90
20985;DHT22;10651;47.552;7.606;2023-07-31T12:13:03;26.30;99.90
20985;DHT22;10651;47.552;7.606;2023-07-31T12:15:34;26.30;99.90
20985;DHT22;10651;47.552;7.606;2023-07-31T12:18:03;26.30;99.90
20985;DHT22;10651;47.552;7.606;2023-07-31T12:20:30;26.60;99.90
20985;DHT22;10651;47.552;7.606;2023-07-31T12:22:57;26.60;99.90
20985;DHT22;10651;47.552;7.606;2023-07-31T12:25:29;26.30;99.90
20985;DHT22;10651;47.552;7.606;2023-07-31T12:27:56;26.40;99.90
20985;DHT22;10651;47.552;7.606;2023-07-31T12:30:34;26.70;99.90
20985;DHT22;10651;47.552;7.606;2023-07-31T12:33:05;27.20;99.90
20985;DHT22;10651;47.552;7.606;2023-07-31T12:35:40;27.10;99.90
20985;DHT22;10651;47.552;7.606;2023-07-31T12:38:06;27.30;99.90
20985;DHT22;10651;47.552;7.606;2023-07-31T12:40:32;27.60;99.90
20985;DHT22;10651;47.552;7.606;2023-07-31T12:43:00;27.40;99.90
20985;DHT22;10651;47.552;7.606;2023-07-31T12:45:27;27.10;99.90
20985;DHT22;10651;47.552;7.606;2023-07-31T12:47:52;27.00;99.90
20985;DHT22;10651;47.552;7.606;2023-07-31T12:50:18;27.20;99.90
20985;DHT22;10651;47.552;7.606;2023-07-31T12:52:44;27.40;99.90
20985;DHT22;10651;47.552;7.606;2023-07-31T12:55:10;27.30;99.90
20985;DHT22;10651;47.552;7.606;2023-07-31T12:57:36;27.50;99.90
20985;DHT22;10651;47.552;7.606;2023-07-31T13:00:03;27.70;99.90
20985;DHT22;10651;47.552;7.606;2023-07-31T13:02:29;27.80;99.90
20985;DHT22;10651;47.552;7.606;2023-07-31T13:04:55;27.90;99.90
20985;DHT22;10651;47.552;7.606;2023-07-31T13:07:22;27.70;99.90
20985;DHT22;10651;47.552;7.606;2023-07-31T13:09:48;27.70;99.90
20985;DHT22;10651;47.552;7.606;2023-07-31T13:12:14;27.70;99.90
20985;DHT22;10651;47.552;7.606;2023-07-31T13:14:39;28.00;99.90
20985;DHT22;10651;47.552;7.606;2023-07-31T13:17:05;28.30;99.90
20985;DHT22;10651;47.552;7.606;2023-07-31T13:19:31;28.40;99.90
20985;DHT22;10651;47.552;7.606;2023-07-31T13:21:57;28.50;99.90
20985;DHT22;10651;47.552;7.606;2023-07-31T13:24:23;28.60;99.90
20985;DHT22;10651;47.552;7.606;2023-07-31T13:26:49;28.70;99.90
20985;DHT22;10651;47.552;7.606;2023-07-31T13:29:15;28.60;99.90
20985;DHT22;10651;47.552;7.606;2023-07-31T13:31:41;27.90;99.90
20985;DHT22;10651;47.552;7.606;2023-07-31T13:34:06;27.80;99.90
20985;DHT22;10651;47.552;7.606;2023-07-31T13:36:32;27.80;99.90
20985;DHT22;10651;47.552;7.606;2023-07-31T13:39:00;28.00;99.90
20985;DHT22;10651;47.552;7.606;2023-07-31T13:41:26;27.90;99.90
20985;DHT22;10651;47.552;7.606;2023-07-31T13:43:52;27.70;99.90
20985;DHT22;10651;47.552;7.606;2023-07-31T13:46:18;27.70;99.90
20985;DHT22;10651;47.552;7.606;2023-07-31T13:48:46;27.60;99.90
20985;DHT22;10651;47.552;7.606;2023-07-31T13:51:11;27.80;99.90
20985;DHT22;10651;47.552;7.606;2023-07-31T13:53:37;28.00;99.90
20985;DHT22;10651;47.552;7.606;2023-07-31T13:56:03;28.10;99.90
20985;DHT22;10651;47.552;7.606;2023-07-31T13:58:29;28.30;99.90
20985;DHT22;10651;47.552;7.606;2023-07-31T14:00:55;28.10;99.90
20985;DHT22;10651;47.552;7.606;2023-07-31T14:03:20;27.90;99.90
20985;DHT22;10651;47.552;7.606;2023-07-31T14:05:46;27.90;99.90
20985;DHT22;10651;47.552;7.606;2023-07-31T14:08:14;27.90;99.90
20985;DHT22;10651;47.552;7.606;2023-07-31T14:10:40;27.90;99.90
20985;DHT22;10651;47.552;7.606;2023-07-31T14:13:06;28.00;99.90
20985;DHT22;10651;47.552;7.606;2023-07-31T14:15:32;27.90;99.90
20985;DHT22;10651;47.552;7.606;2023-07-31T14:17:58;28.00;99.90
20985;DHT22;10651;47.552;7.606;2023-07-31T14:20:24;28.20;99.90
20985;DHT22;10651;47.552;7.606;2023-07-31T14:22:49;28.30;99.90
20985;DHT22;10651;47.552;7.606;2023-07-31T14:25:15;28.40;99.90
20985;DHT22;10651;47.552;7.606;2023-07-31T14:27:41;28.50;99.90
20985;DHT22;10651;47.552;7.606;2023-07-31T14:30:08;28.50;99.90
20985;DHT22;10651;47.552;7.606;2023-07-31T14:32:34;28.40;99.90
20985;DHT22;10651;47.552;7.606;2023-07-31T14:35:00;28.40;99.90
20985;DHT22;10651;47.552;7.606;2023-07-31T14:37:26;28.40;99.90
20985;DHT22;10651;47.552;7.606;2023-07-31T14:39:53;28.40;99.90
20985;DHT22;10651;47.552;7.606;2023-07-31T14:42:21;28.10;99.90
20985;DHT22;10651;47.552;7.606;2023-07-31T14:44:47;28.00;99.90
20985;DHT22;10651;47.552;7.606;2023-07-31T14:47:13;28.10;99.90
20985;DHT22;10651;47.552;7.606;2023-07-31T14:49:39;28.10;99.90
20985;DHT22;10651;47.552;7.606;2023-07-31T14:52:05;27.70;99.90
20985;DHT22;10651;47.552;7.606;2023-07-31T14:54:32;27.50;99.90
20985;DHT22;10651;47.552;7.606;2023-07-31T14:56:58;27.40;99.90
20985;DHT22;10651;47.552;7.606;2023-07-31T14:59:24;27.30;99.90
20985;DHT22;10651;47.552;7.606;2023-07-31T15:01:49;27.00;99.90
20985;DHT22;10651;47.552;7.606;2023-07-31T15:04:15;26.90;99.90
20985;DHT22;10651;47.552;7.606;2023-07-31T15:06:41;26.90;99.90
20985;DHT22;10651;47.552;7.606;2023-07-31T15:09:07;26.70;99.90
20985;DHT22;10651;47.552;7.606;2023-07-31T15:11:32;26.60;99.90
20985;DHT22;10651;47.552;7.606;2023-07-31T15:13:58;26.50;99.90
20985;DHT22;10651;47.552;7.606;2023-07-31T15:16:25;26.40;99.90
20985;DHT22;10651;47.552;7.606;2023-07-31T15:18:50;26.30;99.90
20985;DHT22;10651;47.552;7.606;2023-07-31T15:21:16;26.20;99.90
20985;DHT22;10651;47.552;7.606;2023-07-31T15:23:42;26.20;99.90
20985;DHT22;10651;47.552;7.606;2023-07-31T15:26:08;26.10;99.90
20985;DHT22;10651;47.552;7.606;2023-07-31T15:28:33;26.10;99.90
20985;DHT22;10651;47.552;7.606;2023-07-31T15:31:02;26.30;99.90
20985;DHT22;10651;47.552;7.606;2023-07-31T15:33:28;26.30;99.90
20985;DHT22;10651;47.552;7.606;2023-07-31T15:35:54;26.20;99.90
20985;DHT22;10651;47.552;7.606;2023-07-31T15:38:21;26.30;99.90
20985;DHT22;10651;47.552;7.606;2023-07-31T15:40:48;26.30;99.90
20985;DHT22;10651;47.552;7.606;2023-07-31T15:43:16;26.20;99.90
20985;DHT22;10651;47.552;7.606;2023-07-31T15:45:41;26.10;99.90
20985;DHT22;10651;47.552;7.606;2023-07-31T15:48:07;26.10;99.90
20985;DHT22;10651;47.552;7.606;2023-07-31T15:50:35;26.00;99.90
20985;DHT22;10651;47.552;7.606;2023-07-31T15:53:01;25.90;99.90
20985;DHT22;10651;47.552;7.606;2023-07-31T15:55:27;25.90;99.90
20985;DHT22;10651;47.552;7.606;2023-07-31T15:57:53;25.90;99.90
20985;DHT22;10651;47.552;7.606;2023-07-31T16:00:19;25.80;99.90
20985;DHT22;10651;47.552;7.606;2023-07-31T16:02:44;25.70;99.90
20985;DHT22;10651;47.552;7.606;2023-07-31T16:05:10;25.70;99.90
20985;DHT22;10651;47.552;7.606;2023-07-31T16:07:36;25.70;99.90
20985;DHT22;10651;47.552;7.606;2023-07-31T16:10:02;25.70;99.90
20985;DHT22;10651;47.552;7.606;2023-07-31T16:12:28;25.80;99.90
20985;DHT22;10651;47.552;7.606;2023-07-31T16:14:54;25.90;99.90
20985;DHT22;10651;47.552;7.606;2023-07-31T16:17:19;25.90;99.90
20985;DHT22;10651;47.552;7.606;2023-07-31T16:19:45;26.00;99.90
20985;DHT22;10651;47.552;7.606;2023-07-31T16:22:11;26.00;99.90
20985;DHT22;10651;47.552;7.606;2023-07-31T16:24:37;25.80;99.90
20985;DHT22;10651;47.552;7.606;2023-07-31T16:27:03;25.80;99.90
20985;DHT22;10651;47.552;7.606;2023-07-31T16:29:29;25.80;99.90
20985;DHT22;10651;47.552;7.606;2023-07-31T16:31:54;25.70;99.90
20985;DHT22;10651;47.552;7.606;2023-07-31T16:34:20;25.70;99.90
20985;DHT22;10651;47.552;7.606;2023-07-31T16:36:46;25.70;99.90
20985;DHT22;10651;47.552;7.606;2023-07-31T16:39:12;25.80;99.90
20985;DHT22;10651;47.552;7.606;2023-07-31T16:41:37;26.10;99.90
20985;DHT22;10651;47.552;7.606;2023-07-31T16:44:03;26.10;99.90
20985;DHT22;10651;47.552;7.606;2023-07-31T16:46:29;26.20;99.90
20985;DHT22;10651;47.552;7.606;2023-07-31T16:48:56;26.20;99.90
20985;DHT22;10651;47.552;7.606;2023-07-31T16:51:22;26.30;99.90
20985;DHT22;10651;47.552;7.606;2023-07-31T16:53:48;26.20;99.90
20985;DHT22;10651;47.552;7.606;2023-07-31T16:56:15;25.90;99.90
20985;DHT22;10651;47.552;7.606;2023-07-31T16:58:42;25.70;99.90
20985;DHT22;10651;47.552;7.606;2023-07-31T17:01:08;25.60;99.90
20985;DHT22;10651;47.552;7.606;2023-07-31T17:03:34;25.60;99.90
20985;DHT22;10651;47.552;7.606;2023-07-31T17:06:00;25.60;99.90
20985;DHT22;10651;47.552;7.606;2023-07-31T17:08:25;25.60;99.90
20985;DHT22;10651;47.552;7.606;2023-07-31T17:10:51;25.50;99.90
20985;DHT22;10651;47.552;7.606;2023-07-31T17:13:26;25.40;99.90
20985;DHT22;10651;47.552;7.606;2023-07-31T17:15:58;25.30;99.90
20985;DHT22;10651;47.552;7.606;2023-07-31T17:18:23;25.30;99.90
20985;DHT22;10651;47.552;7.606;2023-07-31T17:20:49;25.20;99.90
20985;DHT22;10651;47.552;7.606;2023-07-31T17:23:15;25.20;99.90
20985;DHT22;10651;47.552;7.606;2023-07-31T17:25:42;25.20;99.90
20985;DHT22;10651;47.552;7.606;2023-07-31T17:28:07;25.20;99.90
20985;DHT22;10651;47.552;7.606;2023-07-31T17:30:33;25.20;99.90
20985;DHT22;10651;47.552;7.606;2023-07-31T17:32:59;25.20;99.90
20985;DHT22;10651;47.552;7.606;2023-07-31T17:35:25;25.30;99.90
20985;DHT22;10651;47.552;7.606;2023-07-31T17:37:51;25.20;99.90
20985;DHT22;10651;47.552;7.606;2023-07-31T17:40:16;25.10;99.90
20985;DHT22;10651;47.552;7.606;2023-07-31T17:42:42;25.10;99.90
20985;DHT22;10651;47.552;7.606;2023-07-31T17:45:08;25.10;99.90
20985;DHT22;10651;47.552;7.606;2023-07-31T17:47:34;25.10;99.90
20985;DHT22;10651;47.552;7.606;2023-07-31T17:50:00;25.10;99.90
20985;DHT22;10651;47.552;7.606;2023-07-31T17:52:26;25.00;99.90
20985;DHT22;10651;47.552;7.606;2023-07-31T17:54:52;25.00;99.90
20985;DHT22;10651;47.552;7.606;2023-07-31T17:57:20;24.90;99.90
20985;DHT22;10651;47.552;7.606;2023-07-31T17:59:46;24.90;99.90
20985;DHT22;10651;47.552;7.606;2023-07-31T18:02:12;24.80;99.90
20985;DHT22;10651;47.552;7.606;2023-07-31T18:04:38;24.80;99.90
20985;DHT22;10651;47.552;7.606;2023-07-31T18:07:04;24.90;99.90
20985;DHT22;10651;47.552;7.606;2023-07-31T18:09:30;24.80;99.90
20985;DHT22;10651;47.552;7.606;2023-07-31T18:11:56;24.80;99.90
20985;DHT22;10651;47.552;7.606;2023-07-31T18:14:23;24.70;99.90
20985;DHT22;10651;47.552;7.606;2023-07-31T18:16:51;24.60;99.90
20985;DHT22;10651;47.552;7.606;2023-07-31T18:19:17;24.60;99.90
20985;DHT22;10651;47.552;7.606;2023-07-31T18:21:43;24.50;99.90
20985;DHT22;10651;47.552;7.606;2023-07-31T18:24:09;24.50;99.90
20985;DHT22;10651;47.552;7.606;2023-07-31T18:26:35;24.40;99.90
20985;DHT22;10651;47.552;7.606;2023-07-31T18:29:02;24.40;99.90
20985;DHT22;10651;47.552;7.606;2023-07-31T18:31:29;24.40;99.90
20985;DHT22;10651;47.552;7.606;2023-07-31T18:33:54;24.30;99.90
20985;DHT22;10651;47.552;7.606;2023-07-31T18:36:21;24.30;99.90
20985;DHT22;10651;47.552;7.606;2023-07-31T18:38:47;24.20;99.90
20985;DHT22;10651;47.552;7.606;2023-07-31T18:41:12;24.20;99.90
20985;DHT22;10651;47.552;7.606;2023-07-31T18:43:38;24.20;99.90
20985;DHT22;10651;47.552;7.606;2023-07-31T18:46:04;24.20;99.90
20985;DHT22;10651;47.552;7.606;2023-07-31T18:48:30;24.10;99.90
20985;DHT22;10651;47.552;7.606;2023-07-31T18:50:56;24.10;99.90
20985;DHT22;10651;47.552;7.606;2023-07-31T18:53:23;24.20;99.90
20985;DHT22;10651;47.552;7.606;2023-07-31T18:55:49;24.20;99.90
20985;DHT22;10651;47.552;7.606;2023-07-31T18:58:15;24.10;99.90
20985;DHT22;10651;47.552;7.606;2023-07-31T19:00:41;24.10;99.90
20985;DHT22;10651;47.552;7.606;2023-07-31T19:03:06;24.00;99.90
20985;DHT22;10651;47.552;7.606;2023-07-31T19:05:32;24.00;99.90
20985;DHT22;10651;47.552;7.606;2023-07-31T19:07:58;24.00;99.90
20985;DHT22;10651;47.552;7.606;2023-07-31T19:10:31;24.00;99.90
20985;DHT22;10651;47.552;7.606;2023-07-31T19:12:57;23.90;99.90
20985;DHT22;10651;47.552;7.606;2023-07-31T19:15:23;23.80;99.90
20985;DHT22;10651;47.552;7.606;2023-07-31T19:17:48;23.80;99.90
20985;DHT22;10651;47.552;7.606;2023-07-31T19:20:14;23.80;99.90
20985;DHT22;10651;47.552;7.606;2023-07-31T19:22:40;23.70;99.90
20985;DHT22;10651;47.552;7.606;2023-07-31T19:25:06;23.70;99.90
20985;DHT22;10651;47.552;7.606;2023-07-31T19:27:32;23.70;99.90
20985;DHT22;10651;47.552;7.606;2023-07-31T19:29:58;23.60;99.90
20985;DHT22;10651;47.552;7.606;2023-07-31T19:32:24;23.60;99.90
20985;DHT22;10651;47.552;7.606;2023-07-31T19:34:50;23.60;99.90
20985;DHT22;10651;47.552;7.606;2023-07-31T19:37:16;23.50;99.90
20985;DHT22;10651;47.552;7.606;2023-07-31T19:39:42;23.50;99.90
20985;DHT22;10651;47.552;7.606;2023-07-31T19:42:09;23.50;99.90
20985;DHT22;10651;47.552;7.606;2023-07-31T19:44:35;23.50;99.90
20985;DHT22;10651;47.552;7.606;2023-07-31T19:47:00;23.50;99.90
20985;DHT22;10651;47.552;7.606;2023-07-31T19:49:27;23.40;99.90
20985;DHT22;10651;47.552;7.606;2023-07-31T19:51:53;23.40;99.90
20985;DHT22;10651;47.552;7.606;2023-07-31T19:54:19;23.40;99.90
20985;DHT22;10651;47.552;7.606;2023-07-31T19:56:44;23.40;99.90
20985;DHT22;10651;47.552;7.606;2023-07-31T19:59:11;23.30;99.90
20985;DHT22;10651;47.552;7.606;2023-07-31T20:01:37;23.20;99.90
20985;DHT22;10651;47.552;7.606;2023-07-31T20:04:02;23.20;99.90
20985;DHT22;10651;47.552;7.606;2023-07-31T20:06:29;23.20;99.90
20985;DHT22;10651;47.552;7.606;2023-07-31T20:08:54;23.20;99.90
20985;DHT22;10651;47.552;7.606;2023-07-31T20:11:21;23.20;99.90
20985;DHT22;10651;47.552;7.606;2023-07-31T20:13:47;23.10;99.90
20985;DHT22;10651;47.552;7.606;2023-07-31T20:16:13;23.10;99.90
20985;DHT22;10651;47.552;7.606;2023-07-31T20:18:41;23.10;99.90
20985;DHT22;10651;47.552;7.606;2023-07-31T20:21:12;23.10;99.90
20985;DHT22;10651;47.552;7.606;2023-07-31T20:23:38;23.10;99.90
20985;DHT22;10651;47.552;7.606;2023-07-31T20:26:04;23.10;99.90
20985;DHT22;10651;47.552;7.606;2023-07-31T20:28:30;23.00;99.90
20985;DHT22;10651;47.552;7.606;2023-07-31T20:30:56;23.00;99.90
20985;DHT22;10651;47.552;7.606;2023-07-31T20:33:22;23.00;99.90
20985;DHT22;10651;47.552;7.606;2023-07-31T20:35:47;23.00;99.90
20985;DHT22;10651;47.552;7.606;2023-07-31T20:38:13;22.90;99.90
20985;DHT22;10651;47.552;7.606;2023-07-31T20:40:39;22.90;99.90
20985;DHT22;10651;47.552;7.606;2023-07-31T20:43:05;22.90;99.90
20985;DHT22;10651;47.552;7.606;2023-07-31T20:45:32;22.90;99.90
20985;DHT22;10651;47.552;7.606;2023-07-31T20:48:02;22.80;99.90
20985;DHT22;10651;47.552;7.606;2023-07-31T20:50:28;22.80;99.90
20985;DHT22;10651;47.552;7.606;2023-07-31T20:52:57;22.80;99.90
20985;DHT22;10651;47.552;7.606;2023-07-31T20:55:25;22.70;99.90
20985;DHT22;10651;47.552;7.606;2023-07-31T20:57:51;22.70;99.90
20985;DHT22;10651;47.552;7.606;2023-07-31T21:00:17;22.70;99.90
20985;DHT22;10651;47.552;7.606;2023-07-31T21:02:44;22.70;99.90
20985;DHT22;10651;47.552;7.606;2023-07-31T21:05:10;22.70;99.90
20985;DHT22;10651;47.552;7.606;2023-07-31T21:07:38;22.70;99.90
20985;DHT22;10651;47.552;7.606;2023-07-31T21:10:06;22.70;99.90
20985;DHT22;10651;47.552;7.606;2023-07-31T21:12:34;22.70;99.90
20985;DHT22;10651;47.552;7.606;2023-07-31T21:15:00;22.70;99.90
20985;DHT22;10651;47.552;7.606;2023-07-31T21:17:26;22.60;99.90
20985;DHT22;10651;47.552;7.606;2023-07-31T21:19:52;22.60;99.90
20985;DHT22;10651;47.552;7.606;2023-07-31T21:22:18;22.60;99.90
20985;DHT22;10651;47.552;7.606;2023-07-31T21:24:44;22.60;99.90
20985;DHT22;10651;47.552;7.606;2023-07-31T21:27:09;22.60;99.90
